ENOV/HOV METAR and TAF weather

Enter ICAO airport designator
Station Type Date Time Source
ENOV METAR 2020/09/26 08:50 UTC NOAA

ENOV 260850Z VRB03KT 9999 FEW037 09/01 Q1012 RMK WIND 2175FT 34013KT


Station Type Date Time Source
ENOV Decoded METAR 2020/09/26 08:50 UTC NOAA

Orsta-Volda / Hovden, Norway (ENOV) 62-11N 006-04E 74M
Sep 26, 2020 - 04:50 AM EDT / 2020.09.26 0850 UTC
Wind: Variable at 3 MPH (3 KT):0
Visibility: greater than 7 mile(s):0
Sky conditions: mostly clear
Temperature: 48 F (9 C)
Dew Point: 33 F (1 C)
Relative Humidity: 57%
Pressure (altimeter): 29.88 in. Hg (1012 hPa)
ob: ENOV 260850Z VRB03KT 9999 FEW037 09/01 Q1012 RMK WIND 2175FT 34013KT
cycle: 9

Station Type Date Time Source
ENOV TAF UTC NOAA

Error!

Example: see airport list